KTPH

Tonopah Airport

Tonopah, Nevada, USA
METAR KTPH 100556Z AUTO 01007KT 10SM CLR 00/M04 A3033 RMK AO2 SLP282 T00001044 10083 20000 50000
Observed Flight Rules
Dec-10 @ 05:56 UTC (32 minutes ago) Visual Flight Rules
Wind Visibility Clouds
10° at 7 knots 10 miles
  • Clear skies
Temperatures Readings
Current 0°C / 32°F
Dewpoint -4°C / 25°F
Humidity 75%
Altimeter 30.33" Hg
Pressure 1028.2 hPa
Elevation 1652
METAR KTPH 100556Z AUTO 01007KT 10SM CLR 00/M04 A3033 RMK AO2 SLP282 T00001044 10083 20000 50000
Observed Flight Rules
Dec-10 @ 05:56 UTC
(32 minutes ago)
VFR
Wind Visibility
10° at 7 knots 10 miles
Clouds
  • Clear skies
Temperature Dewpoint
0°C / 32°F -4°C / 25°F
Humidity Altimeter Pressure
75% 30.33" Hg 1028.2 hPa